Time;durP1;ratioP1;P1;durP2;ratioP2;P2;SDS_P1;SDS_P2;PMS_P1;PMS_P2;Temp;Humidity;BMP_temperature;BMP_pressure;BME280_temperature;BME280_humidity;BME280_pressure;Samples;Min_cycle;Max_cycle;Signal;HPM_P1;HPM_P2
2021/11/07 00:04:48;;;;;;;8.07;4.65;;;;;;;8.25;81.45;101669.78;5038397;28;20497;-57
2021/11/07 00:07:25;;;;;;;10.00;5.35;;;;;;;8.17;81.11;101668.19;5040970;28;20045;-56
2021/11/07 00:12:20;;;;;;;8.60;5.07;;;;;;;8.16;81.56;101667.34;5035714;28;20147;-56
2021/11/07 00:14:48;;;;;;;11.65;4.85;;;;;;;8.09;81.11;101647.88;5037911;28;20009;-57
2021/11/07 00:17:16;;;;;;;10.00;4.78;;;;;;;8.11;81.28;101647.66;5043125;28;20036;-55
2021/11/07 00:19:46;;;;;;;9.98;5.22;;;;;;;8.18;81.68;101651.13;5039570;28;20110;-57
2021/11/07 00:25:15;;;;;;;10.45;5.25;;;;;;;7.96;81.98;101621.22;5007357;28;20053;-56
2021/11/07 00:27:55;;;;;;;8.73;4.78;;;;;;;7.98;82.61;101616.50;5035786;28;20486;-56
2021/11/07 00:38:12;;;;;;;10.45;5.03;;;;;;;8.04;82.66;101607.63;5039912;28;20045;-57
2021/11/07 00:46:06;;;;;;;9.68;5.65;;;;;;;7.98;82.72;101559.63;5042652;28;20269;-56
2021/11/07 00:51:31;;;;;;;10.68;5.47;;;;;;;7.76;82.35;101545.75;5042066;28;20098;-57
2021/11/07 01:01:42;;;;;;;12.05;6.57;;;;;;;7.70;84.39;101530.56;5042206;28;20097;-55
2021/11/07 01:04:13;;;;;;;13.48;6.05;;;;;;;7.72;84.73;101533.84;5040712;28;20466;-56
2021/11/07 01:06:41;;;;;;;9.45;5.35;;;;;;;7.64;84.47;101534.09;5042193;28;20033;-55
2021/11/07 01:09:07;;;;;;;11.50;6.28;;;;;;;7.62;84.66;101522.81;5041692;28;20396;-56
2021/11/07 01:11:34;;;;;;;12.43;5.90;;;;;;;7.62;84.16;101523.63;5042103;28;20044;-55
2021/11/07 01:14:00;;;;;;;8.73;5.80;;;;;;;7.58;84.32;101531.22;5039721;28;20556;-56
2021/11/07 01:16:26;;;;;;;10.30;5.90;;;;;;;7.64;84.18;101526.09;5040100;28;20550;-56
2021/11/07 01:18:52;;;;;;;10.13;6.47;;;;;;;7.74;84.37;101524.63;5037325;28;20081;-56
2021/11/07 01:21:18;;;;;;;10.35;6.10;;;;;;;7.75;84.11;101512.09;5042625;28;20017;-56
2021/11/07 01:24:02;;;;;;;11.32;5.85;;;;;;;7.78;84.47;101501.00;5038594;28;20078;-56
2021/11/07 01:26:37;;;;;;;9.52;5.55;;;;;;;7.69;83.93;101504.94;5038094;28;20029;-56
2021/11/07 01:29:16;;;;;;;9.70;5.47;;;;;;;7.63;83.56;101497.78;5039598;28;20031;-56
2021/11/07 01:31:43;;;;;;;12.75;6.05;;;;;;;7.56;83.96;101485.28;5041798;28;20043;-56
2021/11/07 01:34:18;;;;;;;11.52;5.82;;;;;;;7.61;84.07;101483.84;5038718;28;20480;-56
2021/11/07 01:36:50;;;;;;;10.32;6.05;;;;;;;7.58;83.36;101474.41;5042364;28;20102;-56
2021/11/07 01:39:43;;;;;;;10.68;5.93;;;;;;;7.57;83.64;101470.91;5041564;28;20186;-56
2021/11/07 01:44:39;;;;;;;8.63;5.35;;;;;;;7.53;83.49;101461.69;5039528;28;20025;-56
2021/11/07 01:47:05;;;;;;;10.38;5.57;;;;;;;7.66;83.51;101452.81;5036663;28;20498;-57
2021/11/07 01:49:37;;;;;;;11.18;5.60;;;;;;;7.65;83.79;101442.38;5038029;28;20067;-56
2021/11/07 01:52:07;;;;;;;11.30;5.43;;;;;;;7.63;83.60;101436.44;5039837;28;20024;-56
2021/11/07 01:54:47;;;;;;;12.32;5.40;;;;;;;7.69;84.37;101438.25;5039250;28;20021;-56
2021/11/07 01:57:26;;;;;;;10.25;5.88;;;;;;;7.66;83.82;101428.00;5039524;28;20449;-56
2021/11/07 01:59:58;;;;;;;11.23;5.55;;;;;;;7.74;84.11;101420.59;5039043;28;20033;-56
2021/11/07 02:02:34;;;;;;;8.82;5.57;;;;;;;7.63;84.17;101407.91;5039530;28;20155;-56
2021/11/07 02:05:00;;;;;;;10.82;6.32;;;;;;;7.68;83.74;101404.59;5038327;28;20025;-56
2021/11/07 02:07:26;;;;;;;12.57;5.80;;;;;;;7.65;83.72;101405.03;5036543;28;20036;-56
2021/11/07 02:09:52;;;;;;;9.07;6.20;;;;;;;7.67;83.98;101398.44;5041683;28;20087;-55
2021/11/07 02:12:17;;;;;;;7.45;5.18;;;;;;;7.69;83.88;101396.38;5038254;28;20431;-56
2021/11/07 02:14:43;;;;;;;8.90;5.70;;;;;;;7.66;83.72;101385.31;5040102;28;20033;-56
2021/11/07 02:17:10;;;;;;;10.10;5.32;;;;;;;7.65;82.97;101381.03;5038928;28;20029;-54
2021/11/07 02:19:36;;;;;;;9.27;5.65;;;;;;;7.68;82.82;101373.41;5040518;28;20036;-55
2021/11/07 02:22:03;;;;;;;9.30;5.78;;;;;;;7.73;83.22;101364.78;5038954;28;20029;-56
2021/11/07 02:24:29;;;;;;;7.20;4.65;;;;;;;7.73;82.58;101370.13;5041553;28;20364;-56
2021/11/07 02:26:59;;;;;;;10.13;5.07;;;;;;;7.75;82.76;101352.06;5039286;28;20025;-56
2021/11/07 02:29:26;;;;;;;11.82;5.95;;;;;;;7.68;82.82;101343.25;5035564;28;20025;-56
2021/11/07 02:31:55;;;;;;;10.63;5.97;;;;;;;7.68;83.15;101345.91;5039804;28;20025;-56
2021/11/07 02:34:21;;;;;;;9.65;5.95;;;;;;;7.65;82.92;101325.03;5041676;28;20037;-57
2021/11/07 02:36:46;;;;;;;8.82;5.72;;;;;;;7.68;83.51;101329.91;5042624;28;20489;-54
2021/11/07 02:39:16;;;;;;;14.02;6.68;;;;;;;7.70;83.24;101327.84;5042600;28;20067;-56
2021/11/07 02:41:42;;;;;;;9.00;6.07;;;;;;;7.56;82.65;101314.63;5043112;28;20064;-55
2021/11/07 02:44:09;;;;;;;9.80;5.93;;;;;;;7.62;83.84;101312.94;5044765;28;20036;-56
2021/11/07 02:46:35;;;;;;;9.55;5.93;;;;;;;7.55;82.90;101318.31;5045409;28;20056;-56
2021/11/07 02:49:04;;;;;;;12.77;6.30;;;;;;;7.61;83.72;101308.63;5051905;28;20061;-55
2021/11/07 02:51:35;;;;;;;10.10;6.10;;;;;;;7.56;83.75;101300.47;5043576;28;20020;-55
2021/11/07 02:54:04;;;;;;;10.88;6.22;;;;;;;7.53;83.74;101299.03;5043825;28;20405;-56
2021/11/07 02:56:30;;;;;;;9.90;6.40;;;;;;;7.59;84.24;101302.69;5043037;28;20100;-56
2021/11/07 02:58:57;;;;;;;10.40;6.10;;;;;;;7.52;83.39;101301.91;5045554;28;20039;-56
2021/11/07 03:01:25;;;;;;;11.68;6.15;;;;;;;7.52;83.24;101291.25;5043395;28;20039;-56
2021/11/07 03:03:59;;;;;;;13.82;6.55;;;;;;;7.57;83.94;101289.59;5046022;28;20040;-56
2021/11/07 03:06:24;;;;;;;10.38;6.07;;;;;;;7.55;83.42;101288.16;5044530;28;20025;-54
2021/11/07 03:08:51;;;;;;;10.27;5.95;;;;;;;7.59;82.94;101281.38;5045595;28;20031;-56
2021/11/07 03:11:18;;;;;;;9.18;5.90;;;;;;;7.60;83.44;101283.00;5044776;28;20051;-56
2021/11/07 03:13:44;;;;;;;10.43;6.05;;;;;;;7.68;83.60;101274.72;5043920;28;20083;-55
2021/11/07 03:16:12;;;;;;;10.25;6.00;;;;;;;7.63;82.98;101274.56;5044749;28;20055;-54
2021/11/07 03:18:39;;;;;;;10.32;5.93;;;;;;;7.63;83.13;101271.91;5044774;28;20474;-56
2021/11/07 03:21:08;;;;;;;13.30;6.50;;;;;;;7.58;82.84;101251.22;5042837;28;20028;-56
2021/11/07 03:23:38;;;;;;;9.77;5.13;;;;;;;7.55;82.61;101253.50;5045160;28;20108;-55
2021/11/07 03:26:10;;;;;;;10.35;6.05;;;;;;;7.61;83.18;101239.28;5044805;28;20398;-54
2021/11/07 03:28:36;;;;;;;10.85;6.20;;;;;;;7.64;83.22;101241.53;5041931;28;20056;-55
2021/11/07 03:33:43;;;;;;;9.30;5.45;;;;;;;7.67;82.71;101222.41;5044724;28;20036;-54
2021/11/07 03:36:08;;;;;;;10.52;5.65;;;;;;;7.64;82.99;101216.72;5042999;28;20102;-55
2021/11/07 03:38:36;;;;;;;9.77;5.75;;;;;;;7.64;82.75;101214.84;5041844;28;20072;-56
2021/11/07 03:41:03;;;;;;;10.85;6.32;;;;;;;7.66;82.63;101218.13;5039292;28;20063;-54
2021/11/07 03:43:29;;;;;;;9.48;5.18;;;;;;;7.72;82.79;101216.44;5041617;28;20032;-54
2021/11/07 03:45:57;;;;;;;9.93;5.28;;;;;;;7.70;82.55;101205.97;5040501;28;20116;-56
2021/11/07 03:48:24;;;;;;;12.85;6.13;;;;;;;7.71;83.10;101202.28;5043197;28;20111;-55
2021/11/07 03:50:49;;;;;;;9.82;5.40;;;;;;;7.64;82.46;101190.03;5043098;28;20025;-55
2021/11/07 03:53:15;;;;;;;7.07;4.80;;;;;;;7.68;82.59;101199.22;5042160;28;20029;-54
2021/11/07 03:55:41;;;;;;;8.57;5.30;;;;;;;7.76;82.96;101182.97;5041033;28;20064;-54
2021/11/07 03:58:07;;;;;;;8.65;5.50;;;;;;;7.83;82.32;101184.53;5043505;28;20028;-55
2021/11/07 04:00:33;;;;;;;10.32;6.05;;;;;;;7.78;82.43;101173.72;5041634;28;20410;-54
2021/11/07 04:02:59;;;;;;;9.73;5.97;;;;;;;7.77;83.36;101168.59;5042919;28;20207;-55
2021/11/07 04:05:25;;;;;;;7.68;4.72;;;;;;;7.68;83.49;101161.88;5044635;28;20182;-56
2021/11/07 04:07:51;;;;;;;8.68;5.15;;;;;;;7.76;84.44;101153.63;5044938;28;20041;-55
2021/11/07 04:10:17;;;;;;;11.85;6.57;;;;;;;7.73;85.17;101156.75;5042607;28;20487;-56
2021/11/07 04:12:43;;;;;;;12.00;5.50;;;;;;;7.66;85.20;101145.28;5041016;28;20037;-55
2021/11/07 04:15:10;;;;;;;11.98;6.75;;;;;;;7.71;85.36;101140.94;5042759;28;20044;-53
2021/11/07 04:17:37;;;;;;;9.10;5.65;;;;;;;7.66;85.08;101134.63;5042910;28;20090;-54
2021/11/07 04:20:07;;;;;;;11.20;6.40;;;;;;;7.58;85.65;101128.56;5043426;28;20079;-56
2021/11/07 04:22:33;;;;;;;9.77;6.07;;;;;;;7.63;85.86;101119.88;5041130;28;20017;-55
2021/11/07 04:24:59;;;;;;;12.88;6.13;;;;;;;7.51;86.96;101122.44;5043057;28;20521;-55
2021/11/07 04:27:25;;;;;;;11.88;6.20;;;;;;;7.54;87.34;101119.38;5042975;28;20065;-55
2021/11/07 04:29:50;;;;;;;11.32;5.22;;;;;;;7.53;87.16;101112.38;5043742;28;20132;-54
2021/11/07 04:32:16;;;;;;;10.80;5.88;;;;;;;7.48;87.82;101109.56;5043008;28;20052;-56
2021/11/07 04:34:42;;;;;;;9.60;5.43;;;;;;;7.43;88.61;101104.06;5043611;28;20032;-56
2021/11/07 04:37:08;;;;;;;14.18;5.97;;;;;;;7.46;88.26;101130.28;5042678;28;20024;-54
2021/11/07 04:39:34;;;;;;;9.35;5.25;;;;;;;7.49;88.79;101092.53;5040910;28;20403;-56
2021/11/07 04:41:59;;;;;;;10.00;4.82;;;;;;;7.49;88.51;101097.03;5037610;28;20497;-56
2021/11/07 04:44:26;;;;;;;11.02;6.13;;;;;;;7.53;88.58;101093.72;5042506;28;20040;-55
2021/11/07 04:46:52;;;;;;;9.02;5.60;;;;;;;7.52;89.00;101091.25;5043235;28;20064;-56
2021/11/07 04:49:18;;;;;;;8.75;5.82;;;;;;;7.63;89.09;101084.41;5043379;28;20029;-56
2021/11/07 04:51:44;;;;;;;10.25;5.95;;;;;;;7.60;89.38;101083.00;5041354;28;20174;-54
2021/11/07 04:54:10;;;;;;;11.02;5.47;;;;;;;7.51;89.87;101084.28;5041415;28;20029;-54
2021/11/07 04:56:35;;;;;;;11.27;5.82;;;;;;;7.53;89.84;101088.38;5042855;28;20154;-54
2021/11/07 04:59:01;;;;;;;13.70;5.63;;;;;;;7.51;89.93;101085.13;5041781;28;20063;-55
2021/11/07 05:01:27;;;;;;;11.63;5.88;;;;;;;7.45;90.22;101085.19;5042087;28;20359;-54
2021/11/07 05:03:52;;;;;;;10.18;5.50;;;;;;;7.51;90.08;101082.44;5043097;28;20226;-56
2021/11/07 05:06:18;;;;;;;11.95;6.03;;;;;;;7.59;89.93;101078.69;5043223;28;20025;-54
2021/11/07 05:08:43;;;;;;;11.35;5.97;;;;;;;7.55;89.49;101075.66;5043108;28;20033;-54
2021/11/07 05:11:09;;;;;;;13.38;6.43;;;;;;;7.67;90.06;101075.72;5040078;28;20471;-55
2021/11/07 05:13:35;;;;;;;10.25;5.93;;;;;;;7.57;90.27;101064.78;5042872;28;20036;-54
2021/11/07 05:16:00;;;;;;;9.13;5.38;;;;;;;7.54;90.68;101068.69;5045548;28;20502;-54
2021/11/07 05:18:26;;;;;;;9.95;5.43;;;;;;;7.61;90.67;101054.47;5044166;28;20508;-56
2021/11/07 05:20:52;;;;;;;9.27;5.45;;;;;;;7.65;90.08;101045.81;5043273;28;20058;-54
2021/11/07 05:23:18;;;;;;;10.73;5.40;;;;;;;7.55;90.41;101051.66;5040890;28;20028;-54
2021/11/07 05:25:43;;;;;;;11.77;5.40;;;;;;;7.58;90.87;101050.41;5041512;28;20030;-55
2021/11/07 05:28:10;;;;;;;11.10;5.50;;;;;;;7.50;92.12;101043.50;5039497;28;20037;-54
2021/11/07 05:30:36;;;;;;;11.90;6.32;;;;;;;7.47;92.19;101051.94;5040114;28;20028;-56
2021/11/07 05:33:03;;;;;;;9.43;4.90;;;;;;;7.52;92.90;101035.28;5043635;28;20074;-57
2021/11/07 05:35:29;;;;;;;11.45;5.82;;;;;;;7.53;93.33;101035.03;5043125;28;20048;-54
2021/11/07 05:37:54;;;;;;;9.45;5.60;;;;;;;7.44;93.16;101036.38;5043275;28;20482;-54
2021/11/07 05:40:20;;;;;;;10.63;5.28;;;;;;;7.50;93.70;101027.50;5041204;28;20070;-54
2021/11/07 05:42:47;;;;;;;9.65;6.20;;;;;;;7.55;93.06;101019.66;5042911;28;20082;-53
2021/11/07 05:45:13;;;;;;;10.30;5.53;;;;;;;7.53;92.90;101023.56;5042915;28;20033;-57
2021/11/07 05:47:39;;;;;;;12.18;6.65;;;;;;;7.63;92.78;101005.22;5043012;28;20528;-56
2021/11/07 05:50:06;;;;;;;10.32;5.25;;;;;;;7.65;92.52;101018.31;5043005;28;20032;-55
2021/11/07 05:52:33;;;;;;;10.23;5.60;;;;;;;7.55;92.22;101013.53;5042582;28;20052;-55
2021/11/07 05:54:58;;;;;;;9.45;5.38;;;;;;;7.63;91.76;101012.41;5040688;28;20498;-54
2021/11/07 05:57:25;;;;;;;9.15;5.40;;;;;;;7.67;91.97;101005.59;5043708;28;20025;-58
2021/11/07 05:59:51;;;;;;;8.85;4.95;;;;;;;7.64;92.06;100987.38;5041844;28;20036;-55
2021/11/07 06:02:17;;;;;;;9.65;5.75;;;;;;;7.54;91.86;100982.53;5040390;28;20033;-54
2021/11/07 06:04:43;;;;;;;11.00;5.68;;;;;;;7.58;91.97;100978.41;5040472;28;20395;-57
2021/11/07 06:07:09;;;;;;;9.60;5.65;;;;;;;7.63;91.69;100970.53;5042712;28;20028;-55
2021/11/07 06:09:35;;;;;;;8.93;5.53;;;;;;;7.66;91.05;100991.44;5038773;28;20021;-53
2021/11/07 06:12:00;;;;;;;8.77;4.90;;;;;;;7.73;91.17;100981.53;5044342;28;20051;-54
2021/11/07 06:14:26;;;;;;;8.82;5.13;;;;;;;7.71;91.66;100986.22;5043218;28;20471;-58
2021/11/07 06:16:51;;;;;;;6.88;3.97;;;;;;;7.77;91.35;100987.22;5047735;28;20402;-55
2021/11/07 06:19:17;;;;;;;9.07;5.50;;;;;;;7.77;90.94;100995.22;5044307;28;20500;-55
2021/11/07 06:21:42;;;;;;;7.95;4.65;;;;;;;7.71;90.63;100988.09;5047068;28;20036;-55
2021/11/07 06:24:11;;;;;;;9.77;5.22;;;;;;;7.73;91.04;100975.38;5043089;28;20028;-56
2021/11/07 06:26:37;;;;;;;9.82;5.82;;;;;;;7.79;91.33;100985.13;5045953;28;20486;-54
2021/11/07 06:29:03;;;;;;;9.85;5.53;;;;;;;7.80;91.30;100992.09;5045094;28;20033;-55
2021/11/07 06:31:29;;;;;;;7.95;4.95;;;;;;;7.72;91.50;100979.03;5046182;28;20078;-55
2021/11/07 06:33:54;;;;;;;9.30;5.00;;;;;;;7.76;90.97;100981.06;5047252;28;20033;-55
2021/11/07 06:36:20;;;;;;;10.38;5.80;;;;;;;7.79;91.15;100985.13;5046048;28;20029;-54
2021/11/07 06:38:46;;;;;;;9.07;5.03;;;;;;;7.85;90.87;100976.22;5044354;28;20037;-54
2021/11/07 06:41:11;;;;;;;10.32;5.05;;;;;;;7.84;90.71;100959.41;5044960;28;20028;-54
2021/11/07 06:43:37;;;;;;;10.35;5.53;;;;;;;7.82;90.31;100968.69;5046599;28;20021;-54
2021/11/07 06:46:03;;;;;;;9.73;5.38;;;;;;;7.88;90.44;100967.78;5043807;28;20380;-56
2021/11/07 06:48:29;;;;;;;7.43;4.53;;;;;;;7.91;90.16;100961.19;5046826;28;20029;-54
2021/11/07 06:50:56;;;;;;;11.90;5.82;;;;;;;7.93;90.46;100956.44;5047187;28;20382;-57
2021/11/07 06:53:23;;;;;;;10.02;4.90;;;;;;;7.92;89.97;100958.31;5044220;28;20027;-56
2021/11/07 06:55:49;;;;;;;8.18;4.95;;;;;;;7.93;89.99;100969.78;5046835;28;20021;-54
2021/11/07 06:58:14;;;;;;;9.20;4.95;;;;;;;7.88;89.99;100962.44;5046100;28;20040;-57
2021/11/07 07:00:40;;;;;;;7.68;4.18;;;;;;;7.88;90.01;100968.59;5043635;28;20096;-57
2021/11/07 07:03:05;;;;;;;11.02;5.00;;;;;;;8.02;90.39;100966.56;5044620;28;20064;-54
2021/11/07 07:05:31;;;;;;;8.48;4.70;;;;;;;7.97;89.93;100968.28;5044777;28;20207;-55
2021/11/07 07:08:07;;;;;;;9.00;4.97;;;;;;;7.87;89.86;100960.81;5044738;28;20402;-56
2021/11/07 07:10:35;;;;;;;7.22;4.53;;;;;;;7.95;90.53;100965.84;5042368;28;20064;-56
2021/11/07 07:13:06;;;;;;;7.22;4.50;;;;;;;7.98;90.77;100962.72;5043798;28;20101;-54
2021/11/07 07:15:46;;;;;;;7.35;4.55;;;;;;;8.02;90.52;100963.91;5043320;28;20029;-57
2021/11/07 07:28:26;;;;;;;8.88;5.65;;;;;;;8.14;91.76;100958.63;5045642;28;20390;-55
2021/11/07 07:36:05;;;;;;;8.10;4.47;;;;;;;8.07;93.04;100950.69;5041096;28;20037;-56
2021/11/07 07:38:31;;;;;;;6.78;4.20;;;;;;;8.09;92.83;100943.28;5043639;28;20033;-55
2021/11/07 07:40:57;;;;;;;6.55;4.00;;;;;;;8.07;92.73;100937.34;5040579;28;20068;-54
2021/11/07 07:43:23;;;;;;;7.00;4.07;;;;;;;8.20;92.77;100939.00;5044363;28;20152;-57
2021/11/07 07:45:51;;;;;;;7.50;4.35;;;;;;;8.18;93.00;100930.44;5043680;28;20283;-59
2021/11/07 07:48:17;;;;;;;8.30;4.30;;;;;;;8.17;92.83;100934.94;5044769;28;20061;-54
2021/11/07 07:50:43;;;;;;;6.72;4.20;;;;;;;8.29;93.01;100939.53;5040194;28;20248;-54
2021/11/07 07:53:09;;;;;;;8.43;4.90;;;;;;;8.30;92.58;100927.81;5041478;28;20017;-54
2021/11/07 07:55:35;;;;;;;6.85;4.68;;;;;;;8.25;92.56;100924.97;5041530;28;20025;-55
2021/11/07 07:58:01;;;;;;;6.75;4.32;;;;;;;8.28;92.23;100924.56;5041568;28;20486;-55
2021/11/07 08:00:27;;;;;;;7.82;4.22;;;;;;;8.33;92.89;100914.81;5044640;28;20040;-54
2021/11/07 08:02:53;;;;;;;10.20;4.65;;;;;;;8.40;92.36;100912.88;5044180;28;20020;-57
2021/11/07 08:05:19;;;;;;;7.03;4.38;;;;;;;8.45;92.71;100912.19;5039094;28;20029;-58
2021/11/07 08:07:46;;;;;;;6.30;4.18;;;;;;;8.42;92.85;100917.97;5043632;28;20068;-57
2021/11/07 08:10:13;;;;;;;7.68;4.57;;;;;;;8.39;92.75;100915.75;5043769;28;20029;-55
2021/11/07 08:12:39;;;;;;;7.18;4.20;;;;;;;8.39;92.73;100913.91;5044420;28;20089;-54
2021/11/07 08:15:10;;;;;;;6.28;3.90;;;;;;;8.37;92.27;100918.66;5046652;28;20059;-55
2021/11/07 08:17:36;;;;;;;9.05;4.15;;;;;;;8.31;92.98;100913.41;5041801;28;20021;-55
2021/11/07 08:20:08;;;;;;;6.03;3.55;;;;;;;8.38;92.76;100914.13;5036743;28;20025;-54
2021/11/07 08:22:36;;;;;;;5.75;3.67;;;;;;;8.45;93.15;100910.34;5042174;28;20028;-56
2021/11/07 08:25:10;;;;;;;7.90;3.67;;;;;;;8.46;93.01;100911.97;5043476;28;20174;-55
2021/11/07 08:27:37;;;;;;;7.15;3.97;;;;;;;8.51;92.66;100913.13;5042303;28;20479;-56
2021/11/07 08:30:04;;;;;;;6.13;3.83;;;;;;;8.60;92.63;100909.88;5043087;28;20537;-55
2021/11/07 08:32:29;;;;;;;7.95;4.18;;;;;;;8.66;92.21;100908.16;5040217;28;20020;-55
2021/11/07 08:34:55;;;;;;;6.18;4.25;;;;;;;8.68;92.09;100903.38;5040406;28;20586;-57
2021/11/07 08:37:29;;;;;;;7.13;4.40;;;;;;;8.73;91.92;100901.63;5041363;28;20116;-53
2021/11/07 08:39:57;;;;;;;7.13;3.83;;;;;;;8.62;91.40;100907.81;5042697;28;20086;-54
2021/11/07 08:42:36;;;;;;;6.28;3.70;;;;;;;8.60;92.00;100901.84;5043581;28;20036;-57
2021/11/07 09:01:41;;;;;;;5.05;2.60;;;;;;;8.88;91.23;100889.69;5040809;28;20039;-54
2021/11/07 09:07:20;;;;;;;4.35;2.97;;;;;;;9.11;90.57;100896.84;5039926;28;20029;-54
2021/11/07 09:09:37;;;;;;;3.17;2.55;;;;;;;9.28;90.46;100895.91;5035407;28;20039;-57
2021/11/07 09:12:04;;;;;;;4.93;3.03;;;;;;;9.31;89.84;100882.06;5039272;28;20035;-53
2021/11/07 09:14:35;;;;;;;5.97;3.25;;;;;;;9.45;89.48;100869.22;5040507;28;20021;-56
2021/11/07 09:17:02;;;;;;;3.95;2.58;;;;;;;9.34;89.94;100862.06;5041995;28;20407;-59
2021/11/07 09:19:30;;;;;;;6.05;3.00;;;;;;;9.26;90.06;100878.47;5037998;28;20033;-57
2021/11/07 09:22:03;;;;;;;3.72;2.63;;;;;;;9.15;91.10;100882.78;5038244;28;20491;-56
2021/11/07 09:24:35;;;;;;;5.53;3.10;;;;;;;9.09;92.57;100883.72;5039322;28;20498;-58
2021/11/07 09:27:07;;;;;;;4.88;3.60;;;;;;;9.00;94.18;100871.78;5038432;28;20059;-57
2021/11/07 09:29:50;;;;;;;4.95;3.05;;;;;;;8.90;95.40;100876.91;5037831;28;20034;-57
2021/11/07 09:40:03;;;;;;;4.82;2.80;;;;;;;8.48;100.00;100872.50;5035784;28;20467;-58
2021/11/07 09:45:56;;;;;;;6.35;2.97;;;;;;;8.63;100.00;100839.19;5002953;28;20516;-57
2021/11/07 09:48:22;;;;;;;5.20;2.90;;;;;;;8.86;100.00;100831.13;5036368;28;20408;-57
2021/11/07 09:50:49;;;;;;;5.20;3.08;;;;;;;8.94;99.94;100848.66;5040891;28;20031;-55
2021/11/07 09:53:15;;;;;;;4.03;2.95;;;;;;;9.05;99.78;100843.31;5041788;28;20120;-59
2021/11/07 09:55:41;;;;;;;5.45;3.15;;;;;;;9.18;98.94;100830.72;5042053;28;20021;-57
2021/11/07 09:58:07;;;;;;;4.50;2.78;;;;;;;9.17;98.33;100837.13;5038363;28;20025;-57
2021/11/07 10:00:42;;;;;;;4.78;2.33;;;;;;;9.14;98.15;100838.38;5038934;28;20017;-56
2021/11/07 10:03:11;;;;;;;3.83;2.13;;;;;;;9.17;97.35;100837.94;5037119;28;20068;-57
2021/11/07 10:05:44;;;;;;;4.25;2.35;;;;;;;9.18;97.51;100844.91;5037356;28;20052;-57
2021/11/07 10:08:11;;;;;;;3.92;2.15;;;;;;;9.26;97.13;100852.56;5038579;28;20184;-57
2021/11/07 10:10:47;;;;;;;6.07;2.35;;;;;;;9.43;96.63;100846.47;5038257;28;20483;-57
2021/11/07 10:13:24;;;;;;;10.48;2.45;;;;;;;9.46;95.63;100845.97;5038567;28;20465;-58
2021/11/07 10:16:01;;;;;;;3.53;1.83;;;;;;;9.42;95.08;100845.66;5040037;28;20039;-58
2021/11/07 10:21:23;;;;;;;2.97;1.60;;;;;;;9.59;94.31;100845.69;5035685;28;20521;-57
2021/11/07 10:24:14;;;;;;;7.85;1.48;;;;;;;9.43;91.85;100846.47;5039265;28;20068;-58
2021/11/07 10:26:42;;;;;;;9.32;1.27;;;;;;;9.62;91.24;100850.56;5039824;28;20162;-57
2021/11/07 10:29:20;;;;;;;7.03;1.55;;;;;;;9.65;90.39;100850.09;5040611;28;20025;-58
2021/11/07 10:31:51;;;;;;;5.85;1.85;;;;;;;9.52;89.65;100842.38;5034598;28;20075;-59
2021/11/07 10:48:12;;;;;;;8.68;2.00;;;;;;;9.71;87.52;100834.97;5036238;28;20079;-55
2021/11/07 10:53:25;;;;;;;8.38;2.38;;;;;;;9.89;86.34;100824.84;5036339;28;20163;-58
2021/11/07 10:55:56;;;;;;;6.32;1.33;;;;;;;9.94;85.39;100826.81;5036562;28;20029;-55
2021/11/07 10:58:27;;;;;;;5.80;1.60;;;;;;;10.02;84.33;100817.56;5043528;28;20037;-56
2021/11/07 11:00:54;;;;;;;7.53;1.77;;;;;;;9.97;83.89;100829.00;5035571;28;20086;-58
2021/11/07 11:03:23;;;;;;;8.13;1.67;;;;;;;9.85;82.86;100818.34;5038328;28;20033;-54
2021/11/07 11:06:08;;;;;;;6.50;1.63;;;;;;;10.55;81.67;100817.88;5037621;28;20044;-58
2021/11/07 11:08:43;;;;;;;9.88;1.70;;;;;;;12.22;73.40;100826.25;5040922;28;20398;-56
2021/11/07 11:11:48;;;;;;;4.95;1.90;;;;;;;13.11;67.30;100817.38;5036784;28;20033;-55
2021/11/07 11:30:13;;;;;;;8.45;2.20;;;;;;;11.69;74.31;100806.41;5039976;28;20044;-57
2021/11/07 11:40:43;;;;;;;8.35;1.80;;;;;;;15.47;62.33;100787.28;5041328;28;20043;-58
2021/11/07 11:43:13;;;;;;;5.88;1.83;;;;;;;15.54;59.09;100785.06;5039553;28;20098;-57
2021/11/07 11:45:44;;;;;;;4.63;1.17;;;;;;;14.08;62.20;100787.94;5040501;28;20445;-57
2021/11/07 11:54:28;;;;;;;3.35;1.35;;;;;;;12.09;68.67;100792.56;4996234;28;20033;-58
2021/11/07 11:57:25;;;;;;;8.40;1.75;;;;;;;10.59;76.08;100802.13;5037083;28;20144;-59
2021/11/07 12:00:33;;;;;;;8.27;1.85;;;;;;;10.19;80.83;100803.13;5040146;28;20043;-59
2021/11/07 12:02:55;;;;;;;7.07;2.35;;;;;;;9.75;84.68;100812.84;5035033;28;20052;-58
2021/11/07 12:14:12;;;;;;;7.75;1.90;;;;;;;9.03;88.86;100809.84;5042043;28;20064;-55
2021/11/07 12:16:51;;;;;;;7.72;1.88;;;;;;;9.05;86.94;100792.53;5038735;28;20056;-58
2021/11/07 12:19:19;;;;;;;7.07;1.50;;;;;;;11.33;74.43;100801.75;5053247;28;20033;-57
2021/11/07 12:21:51;;;;;;;5.15;1.55;;;;;;;10.57;76.52;100798.88;5040191;28;20108;-56
2021/11/07 12:24:22;;;;;;;7.95;1.42;;;;;;;9.89;78.66;100799.97;5041569;28;20132;-58
2021/11/07 12:26:48;;;;;;;6.10;1.10;;;;;;;10.49;78.76;100804.69;5039796;28;20033;-58
2021/11/07 12:29:39;;;;;;;3.97;1.55;;;;;;;10.16;75.52;100797.44;5039271;28;20033;-57
2021/11/07 12:32:06;;;;;;;4.80;1.48;;;;;;;11.42;70.29;100803.72;5035299;28;20492;-58
2021/11/07 12:35:05;;;;;;;5.22;1.27;;;;;;;12.92;64.67;100803.53;5037595;28;20037;-54
2021/11/07 12:40:49;;;;;;;4.53;1.17;;;;;;;14.33;57.48;100787.13;5039795;28;20456;-59
2021/11/07 12:43:23;;;;;;;9.90;1.63;;;;;;;14.51;56.29;100797.34;5039699;28;20029;-58
2021/11/07 12:45:53;;;;;;;5.85;1.67;;;;;;;12.58;59.87;100797.75;5039259;28;20078;-58
2021/11/07 12:48:55;;;;;;;6.20;1.90;;;;;;;11.80;62.57;100800.09;5040673;28;20054;-58
2021/11/07 12:51:35;;;;;;;7.80;2.47;;;;;;;11.05;66.78;100805.44;4939425;28;20043;-57
2021/11/07 12:54:09;;;;;;;6.80;1.38;;;;;;;10.72;68.81;100800.97;5027657;28;20033;-57
2021/11/07 12:57:04;;;;;;;6.57;1.20;;;;;;;10.28;71.61;100800.88;5037223;28;20025;-56
2021/11/07 12:59:37;;;;;;;5.60;2.22;;;;;;;10.23;73.13;100814.19;5022848;28;20039;-57
2021/11/07 13:02:17;;;;;;;7.80;1.88;;;;;;;10.08;74.18;100805.91;5037492;28;20041;-56
2021/11/07 13:04:59;;;;;;;5.47;2.70;;;;;;;9.97;74.96;100810.25;5036475;28;20025;-57
2021/11/07 13:07:30;;;;;;;6.13;1.77;;;;;;;9.77;76.88;100816.06;5038076;28;20127;-58
2021/11/07 13:09:59;;;;;;;7.55;1.92;;;;;;;9.75;78.67;100838.78;5038441;28;20086;-57
2021/11/07 13:12:32;;;;;;;5.63;1.42;;;;;;;9.44;81.63;100846.22;5039001;28;20305;-59
2021/11/07 13:15:35;;;;;;;3.30;1.45;;;;;;;8.98;83.47;100849.84;5039996;28;20143;-58
2021/11/07 13:31:59;;;;;;;6.05;1.27;;;;;;;8.60;79.21;100829.75;4976915;28;20092;-57
2021/11/07 13:34:25;;;;;;;3.33;1.85;;;;;;;8.68;78.87;100845.44;5009719;28;20044;-57
2021/11/07 13:36:52;;;;;;;9.30;2.75;;;;;;;8.62;77.12;100848.25;5039396;28;20390;-57
2021/11/07 13:39:25;;;;;;;4.68;2.08;;;;;;;8.74;77.95;100849.03;5037763;28;20051;-57
2021/11/07 13:41:56;;;;;;;6.65;1.63;;;;;;;8.65;77.60;100848.59;5040025;28;20048;-54
2021/11/07 13:44:25;;;;;;;7.30;1.90;;;;;;;8.60;77.87;100856.47;5038786;28;20112;-57
2021/11/07 13:47:04;;;;;;;3.80;1.70;;;;;;;8.51;77.67;100846.38;5040509;28;20033;-58
2021/11/07 13:49:29;;;;;;;7.70;1.58;;;;;;;8.46;77.52;100857.75;5034829;28;20566;-58
2021/11/07 13:52:01;;;;;;;5.63;1.48;;;;;;;8.47;77.03;100838.81;5040307;28;20070;-59
2021/11/07 13:54:27;;;;;;;6.22;2.58;;;;;;;8.41;77.79;100849.59;5034735;28;20017;-53
2021/11/07 13:56:54;;;;;;;4.72;1.63;;;;;;;8.54;77.25;100849.38;5040930;28;20029;-56
2021/11/07 13:59:33;;;;;;;5.32;1.90;;;;;;;8.82;77.40;100845.22;5035559;28;20152;-56
2021/11/07 14:02:01;;;;;;;9.48;2.08;;;;;;;9.09;76.78;100840.97;5035981;28;20375;-57
2021/11/07 14:04:51;;;;;;;7.00;1.42;;;;;;;9.04;76.38;100852.38;5033230;28;20104;-57
2021/11/07 14:07:29;;;;;;;4.75;1.20;;;;;;;9.03;77.05;100848.06;5036163;28;20132;-56
2021/11/07 14:10:03;;;;;;;5.95;1.50;;;;;;;8.93;77.20;100861.19;5036360;28;20114;-58
2021/11/07 14:12:45;;;;;;;7.13;1.30;;;;;;;8.95;77.32;100863.63;5035439;28;20138;-58
2021/11/07 14:15:18;;;;;;;12.40;1.45;;;;;;;8.99;75.91;100862.16;5037946;28;20033;-57
2021/11/07 14:17:46;;;;;;;6.50;1.30;;;;;;;8.96;76.39;100849.22;5036347;28;20067;-56
2021/11/07 14:20:14;;;;;;;6.28;1.42;;;;;;;8.82;77.19;100861.25;5034859;28;20128;-56